createdAt,value
2019-04-26T00:00:46.643Z,4.23
2019-04-26T00:03:18.702Z,4.53
2019-04-26T00:05:47.987Z,3.80
2019-04-26T00:08:17.926Z,4.00
2019-04-26T00:10:53.444Z,4.00
2019-04-26T00:13:44.695Z,3.33
2019-04-26T00:16:20.977Z,4.40
2019-04-26T00:18:56.805Z,5.07
2019-04-26T00:21:26.440Z,5.30
2019-04-26T00:23:55.786Z,4.50
2019-04-26T00:26:25.258Z,5.23
2019-04-26T00:28:54.449Z,3.80
2019-04-26T00:31:23.756Z,11.47
2019-04-26T00:33:52.990Z,3.13
2019-04-26T00:36:22.913Z,8.23
2019-04-26T00:38:52.238Z,6.67
2019-04-26T00:41:22.685Z,7.17
2019-04-26T00:43:52.788Z,4.97
2019-04-26T00:46:25.001Z,4.77
2019-04-26T00:48:56.544Z,6.23
2019-04-26T00:51:25.963Z,7.63
2019-04-26T00:53:55.754Z,8.70
2019-04-26T00:56:26.275Z,5.20
2019-04-26T00:58:55.624Z,8.33
2019-04-26T01:01:26.630Z,9.23
2019-04-26T01:03:55.582Z,8.00
2019-04-26T01:06:27.308Z,9.13
2019-04-26T01:08:56.499Z,7.63
2019-04-26T01:11:26.037Z,7.37
2019-04-26T01:13:55.280Z,7.00
2019-04-26T01:16:24.403Z,8.40
2019-04-26T01:18:53.896Z,5.80
2019-04-26T01:21:26.892Z,7.47
2019-04-26T01:23:58.658Z,8.13
2019-04-26T01:26:31.900Z,12.20
2019-04-26T01:29:05.375Z,5.20
2019-04-26T01:31:38.088Z,4.70
2019-04-26T01:34:07.179Z,5.80
2019-04-26T01:36:38.823Z,4.57
2019-04-26T01:39:20.966Z,8.07
2019-04-26T01:42:15.876Z,7.37
2019-04-26T01:44:55.092Z,9.13
2019-04-26T01:47:24.911Z,6.87
2019-04-26T01:49:54.590Z,6.20
2019-04-26T01:52:25.556Z,6.20
2019-04-26T01:54:55.463Z,7.10
2019-04-26T01:57:27.311Z,6.87
2019-04-26T02:00:03.105Z,5.97
2019-04-26T02:02:50.344Z,7.20
2019-04-26T02:05:23.984Z,7.90
2019-04-26T02:07:53.971Z,5.90
2019-04-26T02:10:25.265Z,9.47
2019-04-26T02:12:55.815Z,6.80
2019-04-26T02:15:29.205Z,9.90
2019-04-26T02:17:59.941Z,7.20
2019-04-26T02:21:13.989Z,8.80
2019-04-26T02:23:52.595Z,13.20
2019-04-26T02:26:35.842Z,6.90
2019-04-26T02:29:08.879Z,7.90
2019-04-26T02:31:40.445Z,10.20
2019-04-26T02:34:11.406Z,6.67
2019-04-26T02:36:56.295Z,9.90
2019-04-26T02:39:23.390Z,6.53
2019-04-26T02:41:55.479Z,8.27
2019-04-26T02:44:31.353Z,10.00
2019-04-26T02:47:38.999Z,8.00
2019-04-26T02:50:14.544Z,14.83
2019-04-26T02:52:52.104Z,8.73
2019-04-26T02:56:17.504Z,8.30
2019-04-26T02:59:09.625Z,12.17
2019-04-26T03:01:40.164Z,9.60
2019-04-26T03:04:09.776Z,10.27
2019-04-26T03:06:43.038Z,10.40
2019-04-26T03:09:15.032Z,6.20
2019-04-26T03:11:48.645Z,7.17
2019-04-26T03:14:43.684Z,8.33
2019-04-26T03:17:37.281Z,9.30
2019-04-26T03:20:10.964Z,6.47
2019-04-26T03:23:11.288Z,7.20
2019-04-26T03:25:51.289Z,6.63
2019-04-26T03:28:37.123Z,5.20
2019-04-26T03:31:27.299Z,14.73
2019-04-26T03:34:39.315Z,5.23
2019-04-26T03:37:21.898Z,5.73
2019-04-26T03:40:04.980Z,4.50
2019-04-26T03:42:59.300Z,10.23
2019-04-26T03:45:44.699Z,5.90
2019-04-26T03:48:44.869Z,4.70
2019-04-26T03:51:25.955Z,5.47
2019-04-26T03:54:05.827Z,7.33
2019-04-26T03:57:13.446Z,3.80
2019-04-26T04:00:23.274Z,4.50
2019-04-26T04:03:53.285Z,6.33
2019-04-26T04:06:28.577Z,6.03
2019-04-26T04:09:09.794Z,6.33
2019-04-26T04:12:09.697Z,8.50
2019-04-26T04:14:57.092Z,5.83
2019-04-26T04:17:45.393Z,7.30
2019-04-26T04:21:13.862Z,7.10
2019-04-26T04:23:57.469Z,7.80
2019-04-26T04:26:46.785Z,7.10
2019-04-26T04:29:46.090Z,18.23
2019-04-26T04:32:17.912Z,7.57
2019-04-26T04:34:50.074Z,5.40
2019-04-26T04:37:21.247Z,5.20
2019-04-26T04:40:19.131Z,6.20
2019-04-26T04:43:05.593Z,7.50
2019-04-26T04:46:16.991Z,3.97
2019-04-26T04:49:14.175Z,6.62
2019-04-26T04:52:23.843Z,6.07
2019-04-26T04:55:07.642Z,9.48
2019-04-26T04:58:12.239Z,7.00
2019-04-26T05:01:46.320Z,5.80
2019-04-26T05:04:24.931Z,9.23
2019-04-26T05:07:27.504Z,6.20
2019-04-26T05:10:11.851Z,9.00
2019-04-26T05:13:04.629Z,11.13
2019-04-26T05:16:03.559Z,7.70
2019-04-26T05:19:26.782Z,7.27
2019-04-26T05:22:25.504Z,6.77
2019-04-26T05:25:53.509Z,8.73
2019-04-26T05:28:44.040Z,5.07
2019-04-26T05:31:27.218Z,8.90
2019-04-26T05:34:34.635Z,9.80
2019-04-26T05:37:27.426Z,9.47
2019-04-26T05:40:31.422Z,5.43
2019-04-26T05:43:44.582Z,12.73
2019-04-26T05:47:03.237Z,8.83
2019-04-26T05:50:15.330Z,12.33
2019-04-26T05:53:24.989Z,13.10
2019-04-26T05:56:28.526Z,7.85
2019-04-26T05:59:20.258Z,4.70
2019-04-26T06:03:04.295Z,6.50
2019-04-26T06:06:05.479Z,5.10
2019-04-26T06:09:36.943Z,8.63
2019-04-26T06:12:18.031Z,8.30
2019-04-26T06:15:24.104Z,6.53
2019-04-26T06:18:38.023Z,7.30
2019-04-26T06:21:28.923Z,6.92
2019-04-26T06:24:12.267Z,6.13
2019-04-26T06:27:13.603Z,10.13
2019-04-26T06:29:48.504Z,7.40
2019-04-26T06:32:27.808Z,5.63
2019-04-26T06:35:30.202Z,8.80
2019-04-26T06:39:11.964Z,7.93
2019-04-26T06:42:04.963Z,6.93
2019-04-26T06:44:47.733Z,11.27
2019-04-26T06:47:28.769Z,9.70
2019-04-26T06:50:12.679Z,13.60
2019-04-26T06:52:47.986Z,9.53
2019-04-26T06:55:27.518Z,9.40
2019-04-26T06:58:46.377Z,15.37
2019-04-26T07:01:26.619Z,11.47
2019-04-26T07:04:38.937Z,9.40
2019-04-26T07:07:38.793Z,11.30
2019-04-26T07:10:45.635Z,16.03
2019-04-26T07:13:39.805Z,12.13
2019-04-26T07:16:29.972Z,12.93
2019-04-26T07:19:19.227Z,11.10
2019-04-26T07:22:35.519Z,11.27
2019-04-26T07:25:40.149Z,16.40
2019-04-26T07:28:48.153Z,12.27
2019-04-26T07:31:54.261Z,14.83
2019-04-26T07:35:02.743Z,11.78
2019-04-26T07:38:11.117Z,10.83
2019-04-26T07:41:33.070Z,12.33
2019-04-26T07:44:31.100Z,13.33
2019-04-26T07:47:43.839Z,10.00
2019-04-26T07:50:30.343Z,10.20
2019-04-26T07:53:36.767Z,19.17
2019-04-26T07:56:25.829Z,7.53
2019-04-26T07:59:32.309Z,10.10
2019-04-26T08:02:26.199Z,13.37
2019-04-26T08:05:07.502Z,7.60
2019-04-26T08:07:42.704Z,10.50
2019-04-26T08:10:20.488Z,10.20
2019-04-26T08:12:56.841Z,10.23
2019-04-26T08:15:58.446Z,13.77
2019-04-26T08:18:35.299Z,10.65
2019-04-26T08:21:16.653Z,14.83
2019-04-26T08:24:00.859Z,10.03
2019-04-26T08:26:33.310Z,16.05
2019-04-26T08:29:06.572Z,8.47
2019-04-26T08:31:38.874Z,10.13
2019-04-26T08:34:12.385Z,10.77
2019-04-26T08:36:50.656Z,9.00
2019-04-26T08:39:32.617Z,13.53
2019-04-26T08:41:57.945Z,11.07
2019-04-26T08:44:47.068Z,11.73
2019-04-26T08:47:26.595Z,12.97
2019-04-26T08:50:09.735Z,13.20
2019-04-26T08:52:39.396Z,10.80
2019-04-26T08:55:10.771Z,14.00
2019-04-26T08:57:42.826Z,10.90
2019-04-26T09:00:34.724Z,12.63
2019-04-26T09:03:15.285Z,13.70
2019-04-26T09:06:13.870Z,13.50
2019-04-26T09:08:46.078Z,10.73
2019-04-26T09:11:25.887Z,15.90
2019-04-26T09:13:50.673Z,13.97
2019-04-26T09:17:07.182Z,23.77
2019-04-26T09:19:36.296Z,13.87
2019-04-26T09:22:27.732Z,15.43
2019-04-26T09:25:01.837Z,16.30
2019-04-26T09:27:43.966Z,20.40
2019-04-26T09:30:33.293Z,17.43
2019-04-26T09:33:05.509Z,13.10
2019-04-26T09:35:34.495Z,15.03
2019-04-26T09:38:03.542Z,13.13
2019-04-26T09:40:32.474Z,19.03
2019-04-26T09:43:16.842Z,13.57
2019-04-26T09:46:02.362Z,13.60
2019-04-26T09:48:42.339Z,15.27
2019-04-26T09:51:11.351Z,19.73
2019-04-26T09:53:43.266Z,19.73
2019-04-26T09:56:11.078Z,20.10
2019-04-26T09:58:40.099Z,22.33
2019-04-26T10:01:09.336Z,23.80
2019-04-26T10:03:38.279Z,22.40
2019-04-26T10:06:08.274Z,26.00
2019-04-26T10:08:37.635Z,31.57
2019-04-26T10:11:09.580Z,26.30
2019-04-26T10:13:45.043Z,29.77
2019-04-26T10:16:42.360Z,28.30
2019-04-26T10:19:15.608Z,25.00
2019-04-26T10:21:44.898Z,25.03
2019-04-26T10:24:14.026Z,27.23
2019-04-26T10:26:43.081Z,31.47
2019-04-26T10:29:12.784Z,34.97
2019-04-26T10:31:41.969Z,34.57
2019-04-26T10:34:11.868Z,37.60
2019-04-26T10:36:42.553Z,31.80
2019-04-26T10:39:12.808Z,39.60
2019-04-26T10:41:41.970Z,36.60
2019-04-26T10:44:12.132Z,37.70
2019-04-26T10:46:41.016Z,42.00
2019-04-26T10:49:41.454Z,48.13
2019-04-26T10:52:17.613Z,43.87
2019-04-26T10:54:50.296Z,43.23
2019-04-26T10:57:32.441Z,37.67
2019-04-26T11:00:04.663Z,49.10
2019-04-26T11:02:33.612Z,45.47
2019-04-26T11:05:02.784Z,40.87
2019-04-26T11:07:31.847Z,46.63
2019-04-26T11:10:02.938Z,41.00
2019-04-26T11:12:32.914Z,43.10
2019-04-26T11:15:01.985Z,54.73
2019-04-26T11:17:30.870Z,39.37
2019-04-26T11:20:00.264Z,48.07
2019-04-26T11:22:33.324Z,40.07
2019-04-26T11:25:03.335Z,44.33
2019-04-26T11:27:32.238Z,43.03
2019-04-26T11:30:11.094Z,33.60
2019-04-26T11:32:33.204Z,39.93
2019-04-26T11:35:02.679Z,37.20
2019-04-26T11:37:31.922Z,36.47
2019-04-26T11:40:00.884Z,34.20
2019-04-26T11:42:29.807Z,36.73
2019-04-26T11:45:06.092Z,36.03
2019-04-26T11:47:29.547Z,35.60
2019-04-26T11:49:58.466Z,37.07
2019-04-26T11:52:27.548Z,26.33
2019-04-26T11:54:56.406Z,31.03
2019-04-26T11:57:25.418Z,25.77
2019-04-26T11:59:54.588Z,33.50
2019-04-26T12:02:23.970Z,30.83
2019-04-26T12:05:11.968Z,23.03
2019-04-26T12:07:49.185Z,26.30
2019-04-26T12:10:18.283Z,29.30
2019-04-26T12:12:51.566Z,20.30
2019-04-26T12:15:29.763Z,22.07
2019-04-26T12:17:58.379Z,26.00
2019-04-26T12:20:22.337Z,24.57
2019-04-26T12:22:49.764Z,21.80
2019-04-26T12:25:18.690Z,22.03
2019-04-26T12:27:48.087Z,20.60
2019-04-26T12:30:17.886Z,22.40
2019-04-26T12:32:49.909Z,24.03
2019-04-26T12:35:19.891Z,31.47
2019-04-26T12:37:50.589Z,19.73
2019-04-26T12:40:19.907Z,29.27
2019-04-26T12:42:49.284Z,18.60
2019-04-26T12:45:33.707Z,19.53
2019-04-26T12:48:07.998Z,19.30
2019-04-26T12:50:37.739Z,24.30
2019-04-26T12:53:07.195Z,21.90
2019-04-26T12:55:36.282Z,17.67
2019-04-26T12:58:05.406Z,20.43
2019-04-26T13:00:37.438Z,14.87
2019-04-26T13:03:19.401Z,14.50
2019-04-26T13:05:37.301Z,14.63
2019-04-26T13:08:06.649Z,18.20
2019-04-26T13:10:56.846Z,14.80
2019-04-26T13:13:32.457Z,12.30
2019-04-26T13:16:10.255Z,18.13
2019-04-26T13:18:41.081Z,19.27
2019-04-26T13:21:12.727Z,12.57
2019-04-26T13:23:41.754Z,13.60
2019-04-26T13:26:11.040Z,14.60
2019-04-26T13:28:40.450Z,9.27
2019-04-26T13:31:09.394Z,6.57
2019-04-26T13:33:38.651Z,12.40
2019-04-26T13:36:07.863Z,7.80
2019-04-26T13:38:39.350Z,7.60
2019-04-26T13:41:07.999Z,8.30
2019-04-26T13:43:37.187Z,10.37
2019-04-26T13:46:31.573Z,7.70
2019-04-26T13:49:08.858Z,9.23
2019-04-26T13:51:38.234Z,6.30
2019-04-26T13:54:08.266Z,8.83
2019-04-26T13:56:37.731Z,9.40
2019-04-26T13:59:08.387Z,11.37
2019-04-26T14:01:37.364Z,4.63
2019-04-26T14:04:08.871Z,7.40
2019-04-26T14:06:40.712Z,6.13
2019-04-26T14:09:12.174Z,10.50
2019-04-26T14:11:41.419Z,6.50
2019-04-26T14:14:10.520Z,11.43
2019-04-26T14:16:42.907Z,10.93
2019-04-26T14:19:15.583Z,6.97
2019-04-26T14:21:42.988Z,6.07
2019-04-26T14:24:24.000Z,6.73
2019-04-26T14:26:55.532Z,5.80
2019-04-26T14:29:28.483Z,8.40
2019-04-26T14:31:55.928Z,4.83
2019-04-26T14:34:25.112Z,4.67
2019-04-26T14:37:05.896Z,7.07
2019-04-26T14:39:38.350Z,4.03
2019-04-26T14:41:56.946Z,5.33
2019-04-26T14:44:31.375Z,5.00
2019-04-26T14:46:59.053Z,5.27
2019-04-26T14:49:38.598Z,4.20
2019-04-26T14:51:59.410Z,9.20
2019-04-26T14:54:28.415Z,7.70
2019-04-26T14:56:59.869Z,6.30
2019-04-26T14:59:47.260Z,8.60
2019-04-26T15:02:48.674Z,11.03
2019-04-26T15:05:38.249Z,4.00
2019-04-26T15:08:09.704Z,16.87
2019-04-26T15:10:45.760Z,6.20
2019-04-26T15:13:17.320Z,8.03
2019-04-26T15:15:39.086Z,5.80
2019-04-26T15:18:08.094Z,13.83
2019-04-26T15:20:37.189Z,5.73
2019-04-26T15:23:06.317Z,16.67
2019-04-26T15:25:36.760Z,6.00
2019-04-26T15:28:06.764Z,5.27
2019-04-26T15:30:43.522Z,10.63
2019-04-26T15:33:09.023Z,4.00
2019-04-26T15:35:38.927Z,7.77
2019-04-26T15:38:08.312Z,10.97
2019-04-26T15:40:55.386Z,7.87
2019-04-26T15:43:29.909Z,5.50
2019-04-26T15:46:18.892Z,5.80
2019-04-26T15:48:57.600Z,10.37
2019-04-26T15:51:28.613Z,10.60
2019-04-26T15:53:57.686Z,7.00
2019-04-26T15:56:26.552Z,9.30
2019-04-26T15:58:57.798Z,8.60
2019-04-26T16:01:26.900Z,6.90
2019-04-26T16:03:56.016Z,4.30
2019-04-26T16:06:26.752Z,9.27
2019-04-26T16:08:55.714Z,11.40
2019-04-26T16:11:24.713Z,10.23
2019-04-26T16:13:55.499Z,7.13
2019-04-26T16:16:29.188Z,5.37
2019-04-26T16:18:57.928Z,5.60
2019-04-26T16:21:27.072Z,8.53
2019-04-26T16:23:56.148Z,3.67
2019-04-26T16:26:25.373Z,10.30
2019-04-26T16:29:18.263Z,6.73
2019-04-26T16:32:05.265Z,8.00
2019-04-26T16:34:35.219Z,7.20
2019-04-26T16:37:09.780Z,8.50
2019-04-26T16:42:08.816Z,6.60
2019-04-26T16:44:37.803Z,8.60
2019-04-26T16:47:07.076Z,9.27
2019-04-26T16:49:41.895Z,8.47
2019-04-26T16:52:09.869Z,5.30
2019-04-26T16:54:38.957Z,8.03
2019-04-26T16:57:11.462Z,5.83
2019-04-26T16:59:46.563Z,6.80
2019-04-26T17:00:30.719Z,9.20
2019-04-26T17:02:09.470Z,13.23
2019-04-26T17:04:38.494Z,7.97
2019-04-26T17:07:10.322Z,17.20
2019-04-26T17:09:55.793Z,8.00
2019-04-26T17:12:10.613Z,10.07
2019-04-26T17:14:47.350Z,12.33
2019-04-26T17:17:12.570Z,9.33
2019-04-26T17:19:43.230Z,8.37
2019-04-26T17:22:41.793Z,18.97
2019-04-26T17:25:24.231Z,10.20
2019-04-26T17:27:50.759Z,12.80
2019-04-26T17:30:24.519Z,11.30
2019-04-26T17:32:55.320Z,9.77
2019-04-26T17:35:25.441Z,7.00
2019-04-26T17:37:57.501Z,12.13
2019-04-26T17:40:29.458Z,9.93
2019-04-26T17:42:56.275Z,13.37
2019-04-26T17:45:27.478Z,8.00
2019-04-26T17:47:56.405Z,11.03
2019-04-26T17:50:27.487Z,9.10
2019-04-26T17:52:56.114Z,9.40
2019-04-26T17:55:25.278Z,7.27
2019-04-26T17:58:09.387Z,6.33
2019-04-26T18:00:27.062Z,5.40
2019-04-26T18:02:56.637Z,9.83
2019-04-26T18:05:41.729Z,12.80
2019-04-26T18:07:59.885Z,10.80
2019-04-26T18:10:28.025Z,11.23
2019-04-26T18:12:57.386Z,9.00
2019-04-26T18:15:26.896Z,11.80
2019-04-26T18:18:27.726Z,9.90
2019-04-26T18:21:25.383Z,11.57
2019-04-26T18:23:57.152Z,10.43
2019-04-26T18:26:25.723Z,11.40
2019-04-26T18:28:55.331Z,8.07
2019-04-26T18:31:28.739Z,8.63
2019-04-26T18:34:00.763Z,9.80
2019-04-26T18:36:27.609Z,7.40
2019-04-26T18:38:57.899Z,9.87
2019-04-26T18:41:28.867Z,9.27
2019-04-26T18:43:59.885Z,7.50
2019-04-26T18:46:40.597Z,14.70
2019-04-26T18:49:11.097Z,14.63
2019-04-26T18:51:41.913Z,6.47
2019-04-26T18:54:28.574Z,7.57
2019-04-26T18:57:00.027Z,9.70
2019-04-26T18:59:29.466Z,6.23
2019-04-26T19:01:59.171Z,7.80
2019-04-26T19:04:28.354Z,7.33
2019-04-26T19:06:57.410Z,5.90
2019-04-26T19:09:27.603Z,7.43
2019-04-26T19:11:56.778Z,14.87
2019-04-26T19:14:49.285Z,6.23
2019-04-26T19:17:30.102Z,8.77
2019-04-26T19:20:24.364Z,5.97
2019-04-26T19:22:58.385Z,9.10
2019-04-26T19:25:29.981Z,6.83
2019-04-26T19:28:03.056Z,12.27
2019-04-26T19:30:29.752Z,15.07
2019-04-26T19:32:58.929Z,14.03
2019-04-26T19:35:28.041Z,12.03
2019-04-26T19:37:57.099Z,10.23
2019-04-26T19:40:27.530Z,13.10
2019-04-26T19:42:57.594Z,10.47
2019-04-26T19:45:52.087Z,10.30
2019-04-26T19:48:39.011Z,12.70
2019-04-26T19:51:27.190Z,11.37
2019-04-26T19:54:03.771Z,13.17
2019-04-26T19:56:51.905Z,15.93
2019-04-26T19:59:21.655Z,15.30
2019-04-26T20:01:55.206Z,17.47
2019-04-26T20:04:24.536Z,19.93
2019-04-26T20:06:55.374Z,41.23
2019-04-26T20:09:26.563Z,36.37
2019-04-26T20:11:57.993Z,38.67
2019-04-26T20:14:39.852Z,24.90
2019-04-26T20:16:57.737Z,23.20
2019-04-26T20:19:36.491Z,15.73
2019-04-26T20:21:57.678Z,19.23
2019-04-26T20:24:26.756Z,19.13
2019-04-26T20:26:56.180Z,16.00
2019-04-26T20:29:25.393Z,11.90
2019-04-26T20:32:24.561Z,20.00
2019-04-26T20:35:04.716Z,13.83
2019-04-26T20:37:33.883Z,12.37
2019-04-26T20:40:17.693Z,10.67
2019-04-26T20:42:34.262Z,13.97
2019-04-26T20:45:04.486Z,12.47
2019-04-26T20:47:34.397Z,13.20
2019-04-26T20:50:03.928Z,14.83
2019-04-26T20:52:33.238Z,17.43
2019-04-26T20:55:02.735Z,10.07
2019-04-26T20:57:34.435Z,13.93
2019-04-26T21:00:05.489Z,11.60
2019-04-26T21:02:33.984Z,13.53
2019-04-26T21:05:06.108Z,15.80
2019-04-26T21:07:34.256Z,13.80
2019-04-26T21:10:04.531Z,17.30
2019-04-26T21:12:33.888Z,16.50
2019-04-26T21:15:03.261Z,15.80
2019-04-26T21:17:32.387Z,21.13
2019-04-26T21:20:02.134Z,16.43
2019-04-26T21:22:31.821Z,15.77
2019-04-26T21:25:05.977Z,23.83
2019-04-26T21:27:54.250Z,15.27
2019-04-26T21:30:44.480Z,18.70
2019-04-26T21:33:17.468Z,15.93
2019-04-26T21:36:01.498Z,26.03
2019-04-26T21:38:41.592Z,14.03
2019-04-26T21:41:14.197Z,15.67
2019-04-26T21:43:43.937Z,15.30
2019-04-26T21:46:18.460Z,20.17
2019-04-26T21:48:44.857Z,21.37
2019-04-26T21:51:16.121Z,17.03
2019-04-26T21:53:45.316Z,16.17
2019-04-26T21:56:14.956Z,13.90
2019-04-26T21:58:46.081Z,20.17
2019-04-26T22:01:19.987Z,15.53
2019-04-26T22:03:54.400Z,15.67
2019-04-26T22:06:26.923Z,16.30
2019-04-26T22:09:02.532Z,21.03
2019-04-26T22:11:30.208Z,19.50
2019-04-26T22:14:04.289Z,15.83
2019-04-26T22:16:41.424Z,15.40
2019-04-26T22:19:23.942Z,14.70
2019-04-26T22:22:15.141Z,12.27
2019-04-26T22:24:43.532Z,16.97
2019-04-26T22:27:17.430Z,23.07
2019-04-26T22:29:47.610Z,14.27
2019-04-26T22:32:15.942Z,15.73
2019-04-26T22:34:46.356Z,13.97
2019-04-26T22:37:29.205Z,16.47
2019-04-26T22:39:46.864Z,11.30
2019-04-26T22:42:16.305Z,20.35
2019-04-26T22:44:54.491Z,17.13
2019-04-26T22:47:40.665Z,11.43
2019-04-26T22:50:05.315Z,16.93
2019-04-26T22:52:34.465Z,11.68
2019-04-26T22:55:04.966Z,24.20
2019-04-26T22:57:33.965Z,15.73
2019-04-26T23:00:03.459Z,7.70
2019-04-26T23:02:32.550Z,15.05
2019-04-26T23:05:02.122Z,11.97
2019-04-26T23:07:33.232Z,11.50
2019-04-26T23:10:04.107Z,14.23
2019-04-26T23:12:53.966Z,14.50
2019-04-26T23:15:36.848Z,12.37
2019-04-26T23:18:15.917Z,14.53
2019-04-26T23:20:49.901Z,11.95
2019-04-26T23:23:19.498Z,17.10
2019-04-26T23:25:48.990Z,10.72
2019-04-26T23:28:18.472Z,12.10
2019-04-26T23:30:48.311Z,13.27
2019-04-26T23:33:17.655Z,16.05
2019-04-26T23:35:47.755Z,9.98
2019-04-26T23:38:16.947Z,12.55
2019-04-26T23:40:46.200Z,14.90
2019-04-26T23:43:15.487Z,8.68
2019-04-26T23:45:48.242Z,8.77
2019-04-26T23:48:15.826Z,11.20
2019-04-26T23:50:45.153Z,11.45
2019-04-26T23:53:14.626Z,9.17
2019-04-26T23:55:45.203Z,22.65
2019-04-26T23:58:14.657Z,8.90
